createdAt,value
2023-02-19T00:01:36.095Z,100135.80
2023-02-19T00:04:15.778Z,100137.60
2023-02-19T00:06:50.580Z,100133.00
2023-02-19T00:09:24.920Z,100132.60
2023-02-19T00:11:59.134Z,100119.40
2023-02-19T00:14:33.463Z,100121.80
2023-02-19T00:17:07.406Z,100125.00
2023-02-19T00:19:42.204Z,100116.60
2023-02-19T00:22:17.807Z,100121.20
2023-02-19T00:24:52.593Z,100115.00
2023-02-19T00:27:26.486Z,100110.20
2023-02-19T00:30:00.806Z,100114.00
2023-02-19T00:32:34.628Z,100113.60
2023-02-19T00:35:09.504Z,100109.20
2023-02-19T00:37:43.261Z,100111.60
2023-02-19T00:40:18.512Z,100112.60
2023-02-19T00:42:52.194Z,100111.20
2023-02-19T00:45:26.318Z,100109.40
2023-02-19T00:48:00.229Z,100108.40
2023-02-19T00:50:34.271Z,100096.60
2023-02-19T00:53:08.183Z,100097.80
2023-02-19T00:55:41.975Z,100096.00
2023-02-19T00:58:15.992Z,100090.80
2023-02-19T01:00:50.062Z,100083.80
2023-02-19T01:03:24.550Z,100083.60
2023-02-19T01:05:58.593Z,100083.60
2023-02-19T01:08:33.422Z,100085.40
2023-02-19T01:11:11.928Z,100087.80
2023-02-19T01:13:46.700Z,100079.20
2023-02-19T01:16:24.068Z,100075.20
2023-02-19T01:19:00.270Z,100067.40
2023-02-19T01:21:34.994Z,100068.20
2023-02-19T01:24:11.023Z,100060.60
2023-02-19T01:26:45.279Z,100058.20
2023-02-19T01:29:19.044Z,100056.60
2023-02-19T01:31:53.110Z,100055.20
2023-02-19T01:34:30.471Z,100054.80
2023-02-19T01:37:04.603Z,100052.60
2023-02-19T01:39:38.809Z,100045.80
2023-02-19T01:42:18.650Z,100046.00
2023-02-19T01:45:28.376Z,100038.80
2023-02-19T01:48:12.768Z,100038.20
2023-02-19T01:50:51.204Z,100028.60
2023-02-19T01:53:31.127Z,100036.20
2023-02-19T01:56:06.514Z,100033.60
2023-02-19T01:58:41.505Z,100025.20
2023-02-19T02:01:16.049Z,100023.60
2023-02-19T02:03:52.337Z,100023.80
2023-02-19T02:06:31.327Z,100009.60
2023-02-19T02:09:23.543Z,100001.40
2023-02-19T02:11:57.481Z,99990.40
2023-02-19T02:14:35.240Z,99982.00
2023-02-19T02:17:21.661Z,99989.00
2023-02-19T02:20:23.977Z,99982.20
2023-02-19T02:23:10.897Z,99986.40
2023-02-19T02:26:27.260Z,99989.60
2023-02-19T02:32:53.466Z,99977.40
2023-02-19T02:35:34.206Z,99974.60
2023-02-19T02:38:13.578Z,99970.20
2023-02-19T02:40:50.029Z,99968.00
2023-02-19T02:43:23.891Z,99966.60
2023-02-19T02:45:58.674Z,99965.20
2023-02-19T02:48:42.919Z,99964.60
2023-02-19T02:51:24.810Z,99966.80
2023-02-19T02:54:30.764Z,99965.80
2023-02-19T02:57:09.448Z,99963.40
2023-02-19T02:59:50.553Z,99961.40
2023-02-19T03:02:32.483Z,99957.80
2023-02-19T03:05:30.956Z,99954.60
2023-02-19T03:08:11.131Z,99950.80
2023-02-19T03:10:52.939Z,99950.00
2023-02-19T03:13:52.719Z,99951.40
2023-02-19T03:16:54.960Z,99951.40
2023-02-19T03:19:36.581Z,99950.00
2023-02-19T03:22:16.888Z,99950.80
2023-02-19T03:25:14.054Z,99953.60
2023-02-19T03:27:52.194Z,99950.40
2023-02-19T03:30:34.223Z,99950.80
2023-02-19T03:33:14.038Z,99945.80
2023-02-19T03:35:52.772Z,99941.80
2023-02-19T03:38:33.146Z,99935.20
2023-02-19T03:41:19.099Z,99927.80
2023-02-19T03:43:58.832Z,99922.80
2023-02-19T03:46:47.204Z,99909.60
2023-02-19T03:49:30.336Z,99908.20
2023-02-19T03:52:12.600Z,99920.20
2023-02-19T03:54:57.864Z,99915.60
2023-02-19T03:57:43.503Z,99911.60
2023-02-19T04:00:23.960Z,99921.20
2023-02-19T04:03:06.796Z,99921.60
2023-02-19T04:05:49.681Z,99927.00
2023-02-19T04:08:27.400Z,99926.80
2023-02-19T04:11:07.353Z,99925.60
2023-02-19T04:13:48.076Z,99921.20
2023-02-19T04:16:28.054Z,99922.80
2023-02-19T04:19:08.750Z,99920.80
2023-02-19T04:21:45.650Z,99917.00
2023-02-19T04:24:26.730Z,99916.40
2023-02-19T04:27:01.030Z,99917.80
2023-02-19T04:29:34.734Z,99915.80
2023-02-19T04:32:10.921Z,99916.60
2023-02-19T04:34:44.649Z,99919.20
2023-02-19T04:37:18.354Z,99913.00
2023-02-19T04:39:52.115Z,99910.00
2023-02-19T04:42:25.714Z,99904.40
2023-02-19T04:44:59.515Z,99899.00
2023-02-19T04:47:34.325Z,99906.20
2023-02-19T04:50:09.530Z,99911.60
2023-02-19T04:52:43.164Z,99908.60
2023-02-19T04:55:17.204Z,99905.60
2023-02-19T04:57:50.864Z,99895.00
2023-02-19T05:00:25.002Z,99900.80
2023-02-19T05:02:58.777Z,99895.00
2023-02-19T05:05:32.572Z,99895.80
2023-02-19T05:08:06.509Z,99887.00
2023-02-19T05:10:40.347Z,99881.40
2023-02-19T05:13:14.028Z,99887.20
2023-02-19T05:15:59.485Z,99881.00
2023-02-19T05:18:35.680Z,99886.00
2023-02-19T05:21:10.733Z,99884.80
2023-02-19T05:23:45.768Z,99885.20
2023-02-19T05:26:24.591Z,99881.20
2023-02-19T05:28:58.385Z,99881.00
2023-02-19T05:31:33.769Z,99877.40
2023-02-19T05:34:07.649Z,99876.20
2023-02-19T05:36:41.959Z,99879.40
2023-02-19T05:39:15.934Z,99874.40
2023-02-19T05:41:49.747Z,99875.20
2023-02-19T05:44:23.369Z,99878.00
2023-02-19T05:46:57.196Z,99876.80
2023-02-19T05:49:31.108Z,99878.20
2023-02-19T05:52:04.923Z,99879.40
2023-02-19T05:54:38.476Z,99879.60
2023-02-19T05:57:12.436Z,99884.00
2023-02-19T05:59:46.124Z,99888.40
2023-02-19T06:02:19.796Z,99881.80
2023-02-19T06:04:53.452Z,99880.40
2023-02-19T06:07:27.216Z,99887.60
2023-02-19T06:10:00.901Z,99896.60
2023-02-19T06:12:34.879Z,99896.20
2023-02-19T06:15:09.904Z,99891.00
2023-02-19T06:17:43.556Z,99894.60
2023-02-19T06:20:17.660Z,99903.20
2023-02-19T06:22:52.850Z,99901.40
2023-02-19T06:25:26.557Z,99910.20
2023-02-19T06:28:00.481Z,99919.60
2023-02-19T06:30:34.611Z,99924.00
2023-02-19T06:33:08.557Z,99919.80
2023-02-19T06:35:42.746Z,99922.40
2023-02-19T06:38:17.930Z,99917.00
2023-02-19T06:40:51.968Z,99928.40
2023-02-19T06:43:26.068Z,99925.40
2023-02-19T06:46:03.366Z,99932.80
2023-02-19T06:48:37.533Z,99943.40
2023-02-19T06:51:14.703Z,99940.40
2023-02-19T06:53:49.089Z,99946.00
2023-02-19T06:56:32.326Z,99944.00
2023-02-19T06:59:09.112Z,99951.20
2023-02-19T07:01:44.265Z,99945.80
2023-02-19T07:04:18.096Z,99946.20
2023-02-19T07:06:51.798Z,99951.40
2023-02-19T07:09:25.784Z,99949.60
2023-02-19T07:11:59.586Z,99956.80
2023-02-19T07:14:33.427Z,99956.20
2023-02-19T07:17:07.522Z,99954.40
2023-02-19T07:19:41.218Z,99960.20
2023-02-19T07:22:15.112Z,99971.00
2023-02-19T07:24:48.782Z,99974.40
2023-02-19T07:27:22.471Z,99978.80
2023-02-19T07:29:56.272Z,99988.40
2023-02-19T07:32:30.019Z,99988.40
2023-02-19T07:35:03.689Z,99995.60
2023-02-19T07:37:37.466Z,100004.00
2023-02-19T07:40:12.877Z,100016.00
2023-02-19T07:42:46.658Z,100015.00
2023-02-19T07:45:20.667Z,100024.80
2023-02-19T07:47:54.570Z,100032.60
2023-02-19T07:50:28.333Z,100035.60
2023-02-19T07:53:02.417Z,100045.20
2023-02-19T07:55:37.608Z,100047.60
2023-02-19T07:58:11.662Z,100055.40
2023-02-19T08:00:45.638Z,100069.60
2023-02-19T08:03:19.542Z,100072.00
2023-02-19T08:05:55.090Z,100071.80
2023-02-19T08:08:28.951Z,100070.00
2023-02-19T08:11:24.094Z,100074.60
2023-02-19T08:13:58.076Z,100083.00
2023-02-19T08:16:42.676Z,100081.40
2023-02-19T08:19:17.447Z,100081.00
2023-02-19T08:21:51.719Z,100085.80
2023-02-19T08:24:25.541Z,100092.20
2023-02-19T08:26:59.592Z,100104.80
2023-02-19T08:29:35.096Z,100103.60
2023-02-19T08:32:09.304Z,100106.40
2023-02-19T08:34:43.370Z,100106.00
2023-02-19T08:37:17.277Z,100114.60
2023-02-19T08:39:51.160Z,100117.00
2023-02-19T08:42:25.109Z,100121.40
2023-02-19T08:45:02.859Z,100119.60
2023-02-19T08:47:39.579Z,100121.00
2023-02-19T08:50:14.494Z,100123.60
2023-02-19T08:52:48.208Z,100127.40
2023-02-19T08:55:22.171Z,100141.40
2023-02-19T08:57:56.331Z,100137.40
2023-02-19T09:00:30.138Z,100141.40
2023-02-19T09:03:04.071Z,100142.80
2023-02-19T09:05:38.672Z,100140.00
2023-02-19T09:08:13.875Z,100142.60
2023-02-19T09:10:57.987Z,100137.40
2023-02-19T09:13:32.096Z,100135.20
2023-02-19T09:16:08.664Z,100144.60
2023-02-19T09:18:46.702Z,100140.60
2023-02-19T09:21:23.568Z,100143.40
2023-02-19T09:24:00.574Z,100148.60
2023-02-19T09:26:38.601Z,100147.00
2023-02-19T09:29:15.547Z,100148.20
2023-02-19T09:31:52.707Z,100155.80
2023-02-19T09:34:31.574Z,100151.20
2023-02-19T09:37:08.912Z,100161.40
2023-02-19T09:39:45.582Z,100162.20
2023-02-19T09:42:26.593Z,100170.00
2023-02-19T09:45:06.869Z,100175.20
2023-02-19T09:47:43.630Z,100173.00
2023-02-19T09:50:27.582Z,100176.60
2023-02-19T09:53:09.577Z,100176.80
2023-02-19T09:55:48.581Z,100175.80
2023-02-19T09:58:32.563Z,100181.20
2023-02-19T10:01:12.014Z,100178.80
2023-02-19T10:03:51.595Z,100180.60
2023-02-19T10:06:30.583Z,100183.00
2023-02-19T10:09:24.578Z,100188.00
2023-02-19T10:12:01.823Z,100197.60
2023-02-19T10:14:45.727Z,100208.00
2023-02-19T10:25:20.075Z,100229.60
2023-02-19T10:27:54.348Z,100231.40
2023-02-19T10:30:33.354Z,100236.00
2023-02-19T10:33:12.978Z,100242.20
2023-02-19T10:36:01.756Z,100244.40
2023-02-19T10:38:40.700Z,100247.80
2023-02-19T10:41:21.090Z,100255.60
2023-02-19T10:44:03.902Z,100256.20
2023-02-19T10:46:45.436Z,100259.60
2023-02-19T10:49:30.812Z,100258.40
2023-02-19T10:52:17.881Z,100264.00
2023-02-19T10:54:57.768Z,100270.40
2023-02-19T10:57:35.248Z,100278.40
2023-02-19T11:00:27.727Z,100277.60
2023-02-19T11:03:25.506Z,100286.00
2023-02-19T11:06:06.778Z,100299.40
2023-02-19T11:08:53.855Z,100298.60
2023-02-19T11:11:36.106Z,100300.80
2023-02-19T11:14:21.631Z,100296.60
2023-02-19T11:16:59.590Z,100312.80
2023-02-19T11:19:39.904Z,100309.40
2023-02-19T11:22:36.717Z,100316.00
2023-02-19T11:25:25.851Z,100325.60
2023-02-19T11:28:07.329Z,100323.00
2023-02-19T11:30:47.142Z,100320.00
2023-02-19T11:33:30.126Z,100318.20
2023-02-19T11:36:31.763Z,100319.60
2023-02-19T11:39:26.071Z,100308.80
2023-02-19T11:42:27.174Z,100307.20
2023-02-19T11:45:33.132Z,100294.40
2023-02-19T11:48:47.512Z,100285.00
2023-02-19T11:51:36.519Z,100289.20
2023-02-19T11:54:24.743Z,100276.40
2023-02-19T11:57:17.191Z,100287.80
2023-02-19T12:00:03.298Z,100283.20
2023-02-19T12:03:04.432Z,100296.20
2023-02-19T12:06:10.482Z,100301.60
2023-02-19T12:09:10.718Z,100310.20
2023-02-19T12:12:08.391Z,100301.40
2023-02-19T12:15:07.641Z,100313.20
2023-02-19T12:18:12.927Z,100324.80
2023-02-19T12:20:59.154Z,100335.00
2023-02-19T12:24:02.873Z,100338.40
2023-02-19T12:26:48.942Z,100342.80
2023-02-19T12:29:53.079Z,100355.20
2023-02-19T12:33:12.886Z,100349.60
2023-02-19T12:36:00.324Z,100357.80
2023-02-19T12:38:41.028Z,100357.20
2023-02-19T12:41:37.255Z,100359.80
2023-02-19T12:44:18.395Z,100361.80
2023-02-19T12:46:58.184Z,100358.60
2023-02-19T12:49:37.303Z,100356.00
2023-02-19T12:52:19.555Z,100369.20
2023-02-19T12:55:00.510Z,100368.80
2023-02-19T12:57:40.285Z,100371.40
2023-02-19T13:00:35.259Z,100369.60
2023-02-19T13:03:22.096Z,100399.80
2023-02-19T13:06:04.889Z,100410.00
2023-02-19T13:09:05.307Z,100411.20
2023-02-19T13:11:47.817Z,100402.00
2023-02-19T13:14:32.693Z,100410.20
2023-02-19T13:17:22.310Z,100414.80
2023-02-19T13:20:04.378Z,100417.20
2023-02-19T13:23:03.573Z,100427.80
2023-02-19T13:26:03.037Z,100420.80
2023-02-19T13:29:03.256Z,100413.00
2023-02-19T13:32:12.166Z,100431.40
2023-02-19T13:35:05.264Z,100429.40
2023-02-19T13:37:40.262Z,100429.80
2023-02-19T13:40:32.191Z,100433.60
2023-02-19T13:43:10.096Z,100437.60
2023-02-19T13:45:48.074Z,100441.00
2023-02-19T13:48:33.773Z,100434.60
2023-02-19T13:51:51.560Z,100418.80
2023-02-19T13:54:33.377Z,100430.80
2023-02-19T13:57:33.759Z,100420.20
2023-02-19T14:00:52.166Z,100423.40
2023-02-19T14:03:47.119Z,100426.40
2023-02-19T14:06:21.696Z,100421.00
2023-02-19T14:09:00.408Z,100421.40
2023-02-19T14:12:19.290Z,100420.20
2023-02-19T14:14:54.571Z,100420.60
2023-02-19T14:17:43.632Z,100430.40
2023-02-19T14:20:46.681Z,100434.60
2023-02-19T14:23:25.507Z,100445.00
2023-02-19T14:26:05.198Z,100432.40
2023-02-19T14:28:47.745Z,100444.80
2023-02-19T14:31:29.971Z,100440.00
2023-02-19T14:34:08.668Z,100438.40
2023-02-19T14:36:51.909Z,100440.40
2023-02-19T14:39:31.701Z,100441.40
2023-02-19T14:42:16.884Z,100444.40
2023-02-19T14:44:57.404Z,100441.80
2023-02-19T14:47:35.157Z,100446.40
2023-02-19T14:50:18.977Z,100455.00
2023-02-19T14:52:58.838Z,100460.80
2023-02-19T14:55:37.931Z,100468.20
2023-02-19T14:58:22.223Z,100482.60
2023-02-19T15:00:56.334Z,100498.40
2023-02-19T15:03:35.702Z,100512.80
2023-02-19T15:06:18.937Z,100521.20
2023-02-19T15:08:59.097Z,100528.40
2023-02-19T15:11:36.398Z,100538.60
2023-02-19T15:14:22.558Z,100540.20
2023-02-19T15:17:02.458Z,100537.60
2023-02-19T15:19:40.430Z,100531.60
2023-02-19T15:22:22.155Z,100530.00
2023-02-19T15:24:57.129Z,100525.60
2023-02-19T15:27:31.232Z,100533.20
2023-02-19T15:30:05.255Z,100529.40
2023-02-19T15:32:39.605Z,100544.40
2023-02-19T15:35:25.440Z,100555.60
2023-02-19T15:37:59.785Z,100564.40
2023-02-19T15:40:35.649Z,100576.00
2023-02-19T15:43:24.806Z,100571.40
2023-02-19T15:46:03.052Z,100585.80
2023-02-19T15:48:44.903Z,100586.60
2023-02-19T15:51:27.016Z,100594.20
2023-02-19T15:54:08.111Z,100599.80
2023-02-19T15:56:49.008Z,100613.00
2023-02-19T15:59:31.256Z,100620.80
2023-02-19T16:02:06.076Z,100629.80
2023-02-19T16:04:41.386Z,100628.00
2023-02-19T16:07:31.969Z,100634.80
2023-02-19T16:10:26.675Z,100636.80
2023-02-19T16:13:03.148Z,100649.20
2023-02-19T16:15:39.808Z,100645.00
2023-02-19T16:18:18.491Z,100649.60
2023-02-19T16:20:52.681Z,100648.80
2023-02-19T16:23:27.475Z,100656.80
2023-02-19T16:26:06.205Z,100659.40
2023-02-19T16:28:42.544Z,100656.80
2023-02-19T16:31:17.973Z,100667.40
2023-02-19T16:33:53.955Z,100675.00
2023-02-19T16:36:41.393Z,100678.00
2023-02-19T16:39:26.488Z,100682.60
2023-02-19T16:42:20.613Z,100699.20
2023-02-19T16:44:54.681Z,100699.80
2023-02-19T16:47:41.425Z,100706.40
2023-02-19T16:50:22.284Z,100711.00
2023-02-19T16:52:58.182Z,100707.60
2023-02-19T16:55:34.689Z,100716.00
2023-02-19T16:58:08.629Z,100726.20
2023-02-19T17:00:42.509Z,100724.20
2023-02-19T17:03:20.573Z,100736.80
2023-02-19T17:05:55.585Z,100733.20
2023-02-19T17:08:42.489Z,100743.20
2023-02-19T17:11:19.262Z,100754.00
2023-02-19T17:13:53.203Z,100763.80
2023-02-19T17:16:39.824Z,100771.40
2023-02-19T17:19:18.949Z,100770.20
2023-02-19T17:21:52.848Z,100766.80
2023-02-19T17:24:26.694Z,100777.00
2023-02-19T17:27:00.756Z,100777.60
2023-02-19T17:29:35.282Z,100776.00
2023-02-19T17:32:09.428Z,100783.00
2023-02-19T17:34:43.373Z,100776.60
2023-02-19T17:37:17.495Z,100771.40
2023-02-19T17:39:51.930Z,100781.00
2023-02-19T17:42:26.026Z,100784.80
2023-02-19T17:44:59.934Z,100785.00
2023-02-19T17:47:34.031Z,100797.40
2023-02-19T17:50:11.394Z,100794.40
2023-02-19T17:52:45.489Z,100798.20
2023-02-19T17:55:21.190Z,100796.20
2023-02-19T17:57:56.183Z,100799.00
2023-02-19T18:00:33.250Z,100806.60
2023-02-19T18:03:08.152Z,100806.20
2023-02-19T18:05:42.223Z,100820.60
2023-02-19T18:08:16.433Z,100823.80
2023-02-19T18:10:50.446Z,100821.20
2023-02-19T18:13:24.360Z,100828.40
2023-02-19T18:15:58.322Z,100824.40
2023-02-19T18:18:32.295Z,100824.20
2023-02-19T18:21:09.340Z,100831.00
2023-02-19T18:23:43.706Z,100830.40
2023-02-19T18:26:22.315Z,100831.40
2023-02-19T18:28:56.735Z,100837.60
2023-02-19T18:31:32.738Z,100843.60
2023-02-19T18:34:07.659Z,100849.60
2023-02-19T18:36:45.103Z,100853.60
2023-02-19T18:39:19.302Z,100859.40
2023-02-19T18:41:54.618Z,100861.40
2023-02-19T18:44:28.902Z,100862.80
2023-02-19T18:47:02.784Z,100863.40
2023-02-19T18:49:37.032Z,100868.60
2023-02-19T18:52:12.349Z,100874.00
2023-02-19T18:54:46.163Z,100878.20
2023-02-19T18:57:21.470Z,100879.80
2023-02-19T18:59:56.198Z,100889.20
2023-02-19T19:02:42.704Z,100891.00
2023-02-19T19:05:24.545Z,100891.60
2023-02-19T19:08:01.984Z,100890.20
2023-02-19T19:10:36.274Z,100890.00
2023-02-19T19:13:10.751Z,100891.20
2023-02-19T19:15:45.248Z,100893.00
2023-02-19T19:18:19.495Z,100896.80
2023-02-19T19:20:56.682Z,100896.80
2023-02-19T19:23:30.893Z,100899.80
2023-02-19T19:26:09.868Z,100895.00
2023-02-19T19:28:46.564Z,100901.80
2023-02-19T19:31:23.022Z,100910.80
2023-02-19T19:33:57.422Z,100908.80
2023-02-19T19:36:31.551Z,100914.60
2023-02-19T19:39:05.612Z,100915.80
2023-02-19T19:41:39.586Z,100927.00
2023-02-19T19:44:19.288Z,100929.20
2023-02-19T19:46:55.577Z,100930.80
2023-02-19T19:49:33.545Z,100926.60
2023-02-19T19:52:08.318Z,100928.40
2023-02-19T19:54:43.902Z,100934.40
2023-02-19T19:57:18.885Z,100930.40
2023-02-19T19:59:54.337Z,100938.00
2023-02-19T20:02:28.570Z,100945.60
2023-02-19T20:05:07.134Z,100956.00
2023-02-19T20:07:41.320Z,100954.80
2023-02-19T20:10:19.450Z,100953.80
2023-02-19T20:12:53.897Z,100959.20
2023-02-19T20:15:28.441Z,100960.60
2023-02-19T20:18:02.609Z,100962.20
2023-02-19T20:20:37.354Z,100970.60
2023-02-19T20:23:12.845Z,100965.40
2023-02-19T20:25:49.339Z,100972.60
2023-02-19T20:28:25.700Z,100971.00
2023-02-19T20:31:00.916Z,100968.40
2023-02-19T20:33:37.370Z,100967.80
2023-02-19T20:36:13.015Z,100962.80
2023-02-19T20:38:47.122Z,100969.00
2023-02-19T20:41:21.358Z,100964.40
2023-02-19T20:43:55.289Z,100977.00
2023-02-19T20:46:29.939Z,100980.80
2023-02-19T20:49:03.988Z,100985.80
2023-02-19T20:51:45.943Z,100989.80
2023-02-19T20:54:22.942Z,100989.20
2023-02-19T20:57:00.010Z,100995.20
2023-02-19T20:59:36.097Z,100994.80
2023-02-19T21:02:27.792Z,100995.00
2023-02-19T21:05:02.275Z,100992.60
2023-02-19T21:07:36.538Z,101000.80
2023-02-19T21:10:13.134Z,100996.80
2023-02-19T21:12:47.167Z,101001.40
2023-02-19T21:15:21.518Z,101006.20
2023-02-19T21:17:55.496Z,101006.20
2023-02-19T21:20:29.511Z,101012.60
2023-02-19T21:23:03.561Z,101016.80
2023-02-19T21:25:38.118Z,101014.40
2023-02-19T21:28:12.613Z,101025.40
2023-02-19T21:30:46.795Z,101032.60
2023-02-19T21:33:20.707Z,101034.80
2023-02-19T21:35:54.655Z,101038.60
2023-02-19T21:38:29.180Z,101037.00
2023-02-19T21:41:03.455Z,101044.00
2023-02-19T21:43:37.457Z,101036.60
2023-02-19T21:46:18.499Z,101041.60
2023-02-19T21:48:54.621Z,101039.20
2023-02-19T21:51:35.658Z,101038.20
2023-02-19T21:54:15.688Z,101048.00
2023-02-19T21:56:49.821Z,101050.40
2023-02-19T21:59:25.369Z,101056.80
2023-02-19T22:01:59.153Z,101064.40
2023-02-19T22:04:33.204Z,101073.20
2023-02-19T22:07:07.130Z,101061.80
2023-02-19T22:09:40.893Z,101063.80
2023-02-19T22:12:14.972Z,101062.40
2023-02-19T22:14:49.989Z,101068.60
2023-02-19T22:17:24.676Z,101068.60
2023-02-19T22:20:01.195Z,101072.00
2023-02-19T22:22:37.641Z,101071.60
2023-02-19T22:25:13.718Z,101074.00
2023-02-19T22:27:50.645Z,101073.20
2023-02-19T22:30:26.696Z,101076.00
2023-02-19T22:33:02.644Z,101075.40
2023-02-19T22:35:39.640Z,101075.60
2023-02-19T22:38:16.665Z,101081.20
2023-02-19T22:40:52.640Z,101081.20
2023-02-19T22:43:30.001Z,101083.80
2023-02-19T22:46:06.727Z,101091.20
2023-02-19T22:48:42.613Z,101085.20
2023-02-19T22:51:21.649Z,101082.00
2023-02-19T22:54:01.631Z,101086.60
2023-02-19T22:56:38.630Z,101083.40
2023-02-19T22:59:14.657Z,101084.80
2023-02-19T23:01:52.640Z,101084.40
2023-02-19T23:04:29.702Z,101083.40
2023-02-19T23:07:05.647Z,101080.20
2023-02-19T23:09:41.620Z,101083.80
2023-02-19T23:12:17.641Z,101082.40
2023-02-19T23:14:52.862Z,101081.20
2023-02-19T23:25:24.871Z,101082.40
2023-02-19T23:27:58.651Z,101081.40
2023-02-19T23:30:32.431Z,101087.40
2023-02-19T23:33:06.127Z,101088.00
2023-02-19T23:35:40.220Z,101088.40
2023-02-19T23:38:14.143Z,101072.60
2023-02-19T23:40:47.906Z,101069.40
2023-02-19T23:43:22.213Z,101068.40
2023-02-19T23:45:55.975Z,101064.60
2023-02-19T23:48:29.944Z,101064.20
2023-02-19T23:51:03.842Z,101062.60
2023-02-19T23:53:37.451Z,101063.20
2023-02-19T23:56:11.967Z,101063.20
2023-02-19T23:58:46.001Z,101064.20
